createdAt,value
2023-02-12T00:00:04.259Z,5.80
2023-02-12T00:03:17.866Z,5.80
2023-02-12T00:06:19.554Z,5.79
2023-02-12T00:09:21.122Z,5.79
2023-02-12T00:12:22.689Z,5.79
2023-02-12T00:15:24.669Z,5.80
2023-02-12T00:18:27.831Z,5.79
2023-02-12T00:21:29.410Z,5.78
2023-02-12T00:24:31.184Z,5.78
2023-02-12T00:27:33.026Z,5.77
2023-02-12T00:30:35.431Z,5.76
2023-02-12T00:33:38.406Z,5.75
2023-02-12T00:36:41.411Z,5.75
2023-02-12T00:39:43.512Z,5.76
2023-02-12T00:42:45.829Z,5.75
2023-02-12T00:45:47.698Z,5.77
2023-02-12T00:48:51.073Z,5.77
2023-02-12T00:51:54.980Z,5.75
2023-02-12T00:54:56.542Z,5.76
2023-02-12T00:57:58.067Z,5.76
2023-02-12T01:00:59.667Z,5.76
2023-02-12T01:04:02.764Z,5.77
2023-02-12T01:07:04.308Z,5.77
2023-02-12T01:10:06.942Z,5.76
2023-02-12T01:13:10.936Z,5.73
2023-02-12T01:16:16.983Z,5.75
2023-02-12T01:19:20.055Z,5.73
2023-02-12T01:22:21.721Z,5.73
2023-02-12T01:25:24.618Z,5.73
2023-02-12T01:28:26.336Z,5.73
2023-02-12T01:31:29.111Z,5.74
2023-02-12T01:34:32.399Z,5.75
2023-02-12T01:37:35.137Z,5.73
2023-02-12T01:40:37.421Z,5.71
2023-02-12T01:43:39.429Z,5.70
2023-02-12T01:46:41.488Z,5.71
2023-02-12T01:49:46.533Z,5.70
2023-02-12T01:52:51.461Z,5.72
2023-02-12T01:55:55.483Z,5.71
2023-02-12T01:58:57.918Z,5.71
2023-02-12T02:02:00.540Z,5.70
2023-02-12T02:05:04.174Z,5.70
2023-02-12T02:08:05.895Z,5.69
2023-02-12T02:11:27.506Z,5.68
2023-02-12T02:14:35.029Z,5.68
2023-02-12T02:17:53.063Z,5.67
2023-02-12T02:21:13.363Z,5.65
2023-02-12T02:24:35.934Z,5.64
2023-02-12T02:27:43.262Z,5.66
2023-02-12T02:30:50.446Z,5.67
2023-02-12T02:33:55.509Z,5.65
2023-02-12T02:37:01.710Z,5.66
2023-02-12T02:40:07.625Z,5.66
2023-02-12T02:43:11.439Z,5.66
2023-02-12T02:46:17.880Z,5.66
2023-02-12T02:49:21.739Z,5.62
2023-02-12T02:52:26.703Z,5.65
2023-02-12T02:55:30.793Z,5.68
2023-02-12T02:58:36.002Z,5.68
2023-02-12T03:01:43.277Z,5.68
2023-02-12T03:04:46.632Z,5.67
2023-02-12T03:07:52.601Z,5.65
2023-02-12T03:10:56.647Z,5.64
2023-02-12T03:14:02.940Z,5.64
2023-02-12T03:17:08.932Z,5.61
2023-02-12T03:20:12.980Z,5.64
2023-02-12T03:23:18.151Z,5.64
2023-02-12T03:26:22.161Z,5.62
2023-02-12T03:29:23.940Z,5.61
2023-02-12T03:32:31.011Z,5.59
2023-02-12T03:35:34.300Z,5.60
2023-02-12T03:38:38.812Z,5.60
2023-02-12T03:41:43.263Z,5.61
2023-02-12T03:44:48.954Z,5.62
2023-02-12T03:47:59.408Z,5.60
2023-02-12T03:51:03.979Z,5.59
2023-02-12T03:54:07.885Z,5.60
2023-02-12T03:57:12.380Z,5.61
2023-02-12T04:00:16.172Z,5.59
2023-02-12T04:03:19.213Z,5.61
2023-02-12T04:06:21.720Z,5.59
2023-02-12T04:09:24.432Z,5.60
2023-02-12T04:12:35.073Z,5.61
2023-02-12T04:15:44.162Z,5.63
2023-02-12T04:18:49.712Z,5.61
2023-02-12T04:21:59.650Z,5.59
2023-02-12T04:25:11.044Z,5.59
2023-02-12T04:28:18.166Z,5.58
2023-02-12T04:31:23.876Z,5.56
2023-02-12T04:34:33.102Z,5.56
2023-02-12T04:37:38.098Z,5.58
2023-02-12T04:40:40.879Z,5.57
2023-02-12T04:43:42.573Z,5.57
2023-02-12T04:46:44.351Z,5.55
2023-02-12T04:49:47.302Z,5.52
2023-02-12T04:52:48.938Z,5.49
2023-02-12T04:55:50.903Z,5.52
2023-02-12T04:58:53.707Z,5.53
2023-02-12T05:01:55.446Z,5.53
2023-02-12T05:04:58.456Z,5.52
2023-02-12T05:08:00.109Z,5.53
2023-02-12T05:11:05.733Z,5.56
2023-02-12T05:14:07.632Z,5.52
2023-02-12T05:17:09.308Z,5.49
2023-02-12T05:20:13.304Z,5.51
2023-02-12T05:23:14.935Z,5.54
2023-02-12T05:26:17.642Z,5.53
2023-02-12T05:29:19.425Z,5.55
2023-02-12T05:32:21.053Z,5.53
2023-02-12T05:35:24.167Z,5.57
2023-02-12T05:38:25.903Z,5.53
2023-02-12T05:41:27.854Z,5.53
2023-02-12T05:44:29.662Z,5.53
2023-02-12T05:47:31.560Z,5.52
2023-02-12T05:50:34.888Z,5.50
2023-02-12T05:53:43.216Z,5.50
2023-02-12T05:56:46.569Z,5.51
2023-02-12T05:59:48.254Z,5.50
2023-02-12T06:02:50.221Z,5.51
2023-02-12T06:05:54.115Z,5.49
2023-02-12T06:08:56.572Z,5.49
2023-02-12T06:11:58.224Z,5.49
2023-02-12T06:15:00.013Z,5.51
2023-02-12T06:18:01.741Z,5.49
2023-02-12T06:21:08.050Z,5.51
2023-02-12T06:24:09.881Z,5.49
2023-02-12T06:27:11.564Z,5.48
2023-02-12T06:30:14.103Z,5.48
2023-02-12T06:33:15.672Z,5.48
2023-02-12T06:36:18.825Z,5.47
2023-02-12T06:39:20.494Z,5.49
2023-02-12T06:42:22.060Z,5.49
2023-02-12T06:45:23.691Z,5.48
2023-02-12T06:48:25.230Z,5.49
2023-02-12T06:51:29.002Z,5.47
2023-02-12T06:54:30.737Z,5.48
2023-02-12T06:57:32.641Z,5.48
2023-02-12T07:00:34.441Z,5.49
2023-02-12T07:03:37.010Z,5.49
2023-02-12T07:06:40.087Z,5.49
2023-02-12T07:09:41.714Z,5.49
2023-02-12T07:12:43.350Z,5.49
2023-02-12T07:15:45.155Z,5.51
2023-02-12T07:18:46.974Z,5.50
2023-02-12T07:21:49.961Z,5.50
2023-02-12T07:24:52.017Z,5.51
2023-02-12T07:27:53.801Z,5.52
2023-02-12T07:30:55.526Z,5.51
2023-02-12T07:33:58.188Z,5.49
2023-02-12T07:37:01.493Z,5.51
2023-02-12T07:40:03.225Z,5.51
2023-02-12T07:43:04.918Z,5.50
2023-02-12T07:46:12.062Z,5.51
2023-02-12T07:49:14.619Z,5.51
2023-02-12T07:52:17.551Z,5.54
2023-02-12T07:55:19.926Z,5.56
2023-02-12T07:58:21.509Z,5.59
2023-02-12T08:01:23.789Z,5.58
2023-02-12T08:04:25.847Z,5.61
2023-02-12T08:07:29.509Z,5.61
2023-02-12T08:10:32.478Z,5.64
2023-02-12T08:13:34.247Z,5.63
2023-02-12T08:16:36.693Z,5.64
2023-02-12T08:19:38.331Z,5.63
2023-02-12T08:22:41.518Z,5.67
2023-02-12T08:25:43.074Z,5.71
2023-02-12T08:28:45.483Z,5.74
2023-02-12T08:31:48.140Z,5.71
2023-02-12T08:34:49.803Z,5.73
2023-02-12T08:37:53.317Z,5.76
2023-02-12T08:40:55.544Z,5.76
2023-02-12T08:43:58.626Z,5.75
2023-02-12T08:47:00.410Z,5.76
2023-02-12T08:50:02.373Z,5.75
2023-02-12T08:53:05.264Z,5.74
2023-02-12T08:59:27.573Z,5.79
2023-02-12T09:02:29.169Z,5.75
2023-02-12T09:05:30.868Z,5.79
2023-02-12T09:08:34.032Z,5.78
2023-02-12T09:11:35.801Z,5.80
2023-02-12T09:14:37.564Z,5.78
2023-02-12T09:17:41.154Z,5.80
2023-02-12T09:20:43.958Z,5.83
2023-02-12T09:23:47.321Z,5.82
2023-02-12T09:26:48.860Z,5.86
2023-02-12T09:29:50.407Z,5.88
2023-02-12T09:32:52.333Z,5.91
2023-02-12T09:35:54.197Z,5.91
2023-02-12T09:38:59.324Z,5.90
2023-02-12T09:42:15.552Z,5.94
2023-02-12T09:45:20.263Z,5.96
2023-02-12T09:48:32.903Z,5.99
2023-02-12T09:51:35.171Z,6.00
2023-02-12T09:54:39.540Z,6.02
2023-02-12T09:57:41.916Z,6.03
2023-02-12T10:00:44.765Z,6.03
2023-02-12T10:03:47.520Z,6.09
2023-02-12T10:06:55.795Z,6.09
2023-02-12T10:10:09.452Z,6.17
2023-02-12T10:13:16.937Z,6.13
2023-02-12T10:16:21.383Z,6.17
2023-02-12T10:19:27.635Z,6.19
2023-02-12T10:22:33.352Z,6.20
2023-02-12T10:25:42.889Z,6.19
2023-02-12T10:28:44.740Z,6.20
2023-02-12T10:31:50.064Z,6.21
2023-02-12T10:34:52.758Z,6.16
2023-02-12T10:37:58.268Z,6.12
2023-02-12T10:41:02.005Z,6.16
2023-02-12T10:44:03.820Z,6.15
2023-02-12T10:47:06.370Z,6.17
2023-02-12T10:50:16.620Z,6.17
2023-02-12T10:53:20.888Z,6.16
2023-02-12T10:56:27.369Z,6.15
2023-02-12T10:59:29.215Z,6.20
2023-02-12T11:02:31.986Z,6.24
2023-02-12T11:05:35.895Z,6.23
2023-02-12T11:08:39.114Z,6.30
2023-02-12T11:11:42.540Z,6.25
2023-02-12T11:14:48.520Z,6.28
2023-02-12T11:17:55.755Z,6.29
2023-02-12T11:21:00.091Z,6.26
2023-02-12T11:24:20.598Z,6.27
2023-02-12T11:27:24.680Z,6.29
2023-02-12T11:30:26.827Z,6.29
2023-02-12T11:33:32.805Z,6.24
2023-02-12T11:36:36.186Z,6.25
2023-02-12T11:39:39.149Z,6.26
2023-02-12T11:42:47.624Z,6.26
2023-02-12T11:45:52.629Z,6.30
2023-02-12T11:48:56.404Z,6.31
2023-02-12T11:52:00.482Z,6.30
2023-02-12T11:55:04.921Z,6.31
2023-02-12T11:58:13.966Z,6.31
2023-02-12T12:01:19.638Z,6.35
2023-02-12T12:04:23.071Z,6.45
2023-02-12T12:07:26.700Z,6.41
2023-02-12T12:10:33.976Z,6.44
2023-02-12T12:13:39.147Z,6.42
2023-02-12T12:17:02.513Z,6.38
2023-02-12T12:20:06.851Z,6.68
2023-02-12T12:23:11.199Z,6.73
2023-02-12T12:26:15.985Z,6.69
2023-02-12T12:29:22.070Z,6.69
2023-02-12T12:32:26.478Z,6.63
2023-02-12T12:35:36.938Z,6.62
2023-02-12T12:38:45.195Z,6.62
2023-02-12T12:41:55.875Z,6.68
2023-02-12T12:45:06.128Z,6.63
2023-02-12T12:48:13.037Z,6.62
2023-02-12T12:51:24.002Z,6.61
2023-02-12T12:54:33.232Z,6.59
2023-02-12T12:57:44.370Z,6.52
2023-02-12T13:01:00.831Z,6.51
2023-02-12T13:04:08.859Z,6.51
2023-02-12T13:07:14.760Z,6.51
2023-02-12T13:10:19.787Z,6.52
2023-02-12T13:13:26.612Z,6.52
2023-02-12T13:16:31.124Z,6.55
2023-02-12T13:19:38.431Z,6.55
2023-02-12T13:22:43.756Z,6.56
2023-02-12T13:25:49.678Z,6.59
2023-02-12T13:28:53.875Z,6.57
2023-02-12T13:31:58.348Z,6.60
2023-02-12T13:35:01.345Z,6.60
2023-02-12T13:38:03.323Z,6.57
2023-02-12T13:41:05.977Z,6.60
2023-02-12T13:44:14.952Z,6.61
2023-02-12T13:47:22.682Z,6.61
2023-02-12T13:50:33.793Z,6.63
2023-02-12T13:53:45.637Z,6.57
2023-02-12T13:56:49.364Z,6.56
2023-02-12T13:59:53.849Z,6.55
2023-02-12T14:02:57.043Z,6.52
2023-02-12T14:06:09.641Z,6.43
2023-02-12T14:09:11.609Z,6.46
2023-02-12T14:12:15.368Z,6.46
2023-02-12T14:15:38.059Z,6.43
2023-02-12T14:18:41.051Z,6.43
2023-02-12T14:21:43.471Z,6.43
2023-02-12T14:24:50.521Z,6.44
2023-02-12T14:27:53.019Z,6.39
2023-02-12T14:31:13.492Z,6.39
2023-02-12T14:34:48.515Z,6.37
2023-02-12T14:37:52.260Z,6.37
2023-02-12T14:41:33.975Z,6.35
2023-02-12T14:44:39.163Z,6.35
2023-02-12T14:47:50.173Z,6.36
2023-02-12T14:50:53.741Z,6.32
2023-02-12T14:53:57.349Z,6.30
2023-02-12T14:57:01.657Z,6.29
2023-02-12T15:00:19.566Z,6.27
2023-02-12T15:03:25.401Z,6.25
2023-02-12T15:06:34.678Z,6.26
2023-02-12T15:09:42.161Z,6.22
2023-02-12T15:12:46.278Z,6.24
2023-02-12T15:15:51.130Z,6.23
2023-02-12T15:18:55.719Z,6.24
2023-02-12T15:21:57.882Z,6.20
2023-02-12T15:25:14.391Z,6.18
2023-02-12T15:28:19.627Z,6.18
2023-02-12T15:31:25.541Z,6.20
2023-02-12T15:34:29.037Z,6.19
2023-02-12T15:37:31.476Z,6.19
2023-02-12T15:40:33.529Z,6.20
2023-02-12T15:43:40.223Z,6.22
2023-02-12T15:46:52.746Z,6.23
2023-02-12T15:49:59.423Z,6.24
2023-02-12T15:53:01.376Z,6.26
2023-02-12T15:56:03.390Z,6.26
2023-02-12T15:59:06.633Z,6.25
2023-02-12T16:02:18.038Z,6.24
2023-02-12T16:05:19.799Z,6.26
2023-02-12T16:08:22.584Z,6.22
2023-02-12T16:11:25.390Z,6.27
2023-02-12T16:14:32.751Z,6.27
2023-02-12T16:17:35.401Z,6.27
2023-02-12T16:20:37.228Z,6.23
2023-02-12T16:23:39.048Z,6.25
2023-02-12T16:26:40.822Z,6.28
2023-02-12T16:29:46.904Z,6.28
2023-02-12T16:32:49.035Z,6.27
2023-02-12T16:36:00.125Z,6.28
2023-02-12T16:39:02.705Z,6.26
2023-02-12T16:42:04.362Z,6.26
2023-02-12T16:45:27.699Z,6.23
2023-02-12T16:48:31.425Z,6.21
2023-02-12T16:51:34.197Z,6.20
2023-02-12T16:54:36.048Z,6.17
2023-02-12T16:57:37.740Z,6.16
2023-02-12T17:00:39.701Z,6.09
2023-02-12T17:03:43.427Z,6.10
2023-02-12T17:06:45.207Z,6.06
2023-02-12T17:09:46.885Z,6.04
2023-02-12T17:12:50.978Z,6.03
2023-02-12T17:15:54.468Z,6.04
2023-02-12T17:18:57.809Z,6.07
2023-02-12T17:21:59.575Z,6.06
2023-02-12T17:25:01.238Z,6.05
2023-02-12T17:28:02.918Z,6.06
2023-02-12T17:31:06.389Z,6.05
2023-02-12T17:34:09.862Z,6.03
2023-02-12T17:37:11.644Z,6.04
2023-02-12T17:40:13.270Z,6.05
2023-02-12T17:43:14.931Z,6.04
2023-02-12T17:46:18.467Z,6.03
2023-02-12T17:49:21.745Z,6.01
2023-02-12T17:52:23.496Z,6.03
2023-02-12T17:55:25.208Z,6.05
2023-02-12T17:58:27.256Z,6.04
2023-02-12T18:01:29.158Z,6.01
2023-02-12T18:04:36.108Z,6.02
2023-02-12T18:07:38.472Z,5.98
2023-02-12T18:10:41.308Z,5.98
2023-02-12T18:13:42.997Z,6.01
2023-02-12T18:16:45.029Z,6.06
2023-02-12T18:19:48.861Z,6.03
2023-02-12T18:22:50.640Z,6.02
2023-02-12T18:25:52.524Z,6.03
2023-02-12T18:28:54.277Z,6.01
2023-02-12T18:31:56.364Z,6.01
2023-02-12T18:34:59.588Z,6.02
2023-02-12T18:38:01.417Z,6.02
2023-02-12T18:41:06.136Z,6.04
2023-02-12T18:44:07.752Z,6.05
2023-02-12T18:47:09.459Z,6.01
2023-02-12T18:50:12.652Z,5.97
2023-02-12T18:53:14.291Z,5.98
2023-02-12T18:56:16.097Z,5.98
2023-02-12T18:59:17.649Z,5.98
2023-02-12T19:02:19.394Z,5.98
2023-02-12T19:05:22.557Z,5.97
2023-02-12T19:08:24.292Z,5.97
2023-02-12T19:11:26.911Z,5.99
2023-02-12T19:14:28.641Z,6.00
2023-02-12T19:17:30.435Z,6.00
2023-02-12T19:20:34.012Z,6.03
2023-02-12T19:23:35.920Z,6.04
2023-02-12T19:26:37.810Z,5.99
2023-02-12T19:29:39.440Z,5.95
2023-02-12T19:32:41.176Z,5.94
2023-02-12T19:35:45.851Z,5.95
2023-02-12T19:38:49.199Z,5.97
2023-02-12T19:41:51.262Z,5.97
2023-02-12T19:44:53.018Z,5.99
2023-02-12T19:47:55.345Z,6.01
2023-02-12T19:50:59.205Z,5.99
2023-02-12T19:54:01.372Z,6.01
2023-02-12T19:57:08.692Z,6.04
2023-02-12T20:00:10.905Z,6.04
2023-02-12T20:03:13.892Z,6.06
2023-02-12T20:06:18.954Z,6.03
2023-02-12T20:09:21.331Z,6.02
2023-02-12T20:12:23.128Z,6.04
2023-02-12T20:15:25.548Z,6.06
2023-02-12T20:18:27.297Z,6.09
2023-02-12T20:21:30.739Z,6.09
2023-02-12T20:24:33.682Z,6.06
2023-02-12T20:27:35.759Z,6.01
2023-02-12T20:30:39.175Z,6.01
2023-02-12T20:33:41.718Z,6.04
2023-02-12T20:36:48.807Z,6.07
2023-02-12T20:39:50.627Z,6.10
2023-02-12T20:42:52.514Z,6.09
2023-02-12T20:45:54.177Z,6.09
2023-02-12T20:48:57.573Z,6.05
2023-02-12T20:52:01.629Z,6.04
2023-02-12T20:55:03.360Z,6.01
2023-02-12T20:58:04.996Z,5.99
2023-02-12T21:01:07.933Z,5.99
2023-02-12T21:04:10.824Z,5.95
2023-02-12T21:07:13.922Z,5.95
2023-02-12T21:10:16.009Z,5.96
2023-02-12T21:13:17.536Z,5.99
2023-02-12T21:16:20.499Z,6.00
2023-02-12T21:19:22.694Z,6.00
2023-02-12T21:22:26.023Z,5.98
2023-02-12T21:25:27.583Z,5.98
2023-02-12T21:28:29.623Z,6.00
2023-02-12T21:31:32.611Z,6.02
2023-02-12T21:34:34.785Z,6.00
2023-02-12T21:37:40.412Z,6.00
2023-02-12T21:40:41.946Z,5.93
2023-02-12T21:43:44.546Z,5.90
2023-02-12T21:46:46.506Z,5.91
2023-02-12T21:49:48.318Z,5.91
2023-02-12T21:52:57.681Z,5.85
2023-02-12T21:56:01.681Z,5.83
2023-02-12T21:59:04.076Z,5.79
2023-02-12T22:02:14.820Z,5.76
2023-02-12T22:05:16.738Z,5.80
2023-02-12T22:08:23.109Z,5.81
2023-02-12T22:11:24.694Z,5.82
2023-02-12T22:14:26.380Z,5.83
2023-02-12T22:17:28.150Z,5.81
2023-02-12T22:20:29.972Z,5.82
2023-02-12T22:23:33.178Z,5.82
2023-02-12T22:26:35.269Z,5.82
2023-02-12T22:29:37.332Z,5.81
2023-02-12T22:32:39.528Z,5.83
2023-02-12T22:35:41.408Z,5.85
2023-02-12T22:38:46.253Z,5.87
2023-02-12T22:41:48.193Z,5.87
2023-02-12T22:44:49.793Z,5.87
2023-02-12T22:47:51.492Z,5.87
2023-02-12T22:50:53.207Z,5.91
2023-02-12T22:53:56.200Z,5.92
2023-02-12T22:56:57.997Z,5.91
2023-02-12T22:59:59.889Z,5.91
2023-02-12T23:03:01.946Z,5.93
2023-02-12T23:06:04.917Z,5.91
2023-02-12T23:09:11.831Z,5.91
2023-02-12T23:12:13.459Z,5.91
2023-02-12T23:15:15.841Z,5.89
2023-02-12T23:18:17.575Z,5.87
2023-02-12T23:21:19.342Z,5.87
2023-02-12T23:24:22.546Z,5.89
2023-02-12T23:27:24.124Z,5.88
2023-02-12T23:30:25.961Z,5.87
2023-02-12T23:33:27.786Z,5.86
2023-02-12T23:36:29.485Z,5.85
2023-02-12T23:39:32.611Z,5.81
2023-02-12T23:42:34.475Z,5.81
2023-02-12T23:45:36.008Z,5.82
2023-02-12T23:48:37.929Z,5.78
2023-02-12T23:51:39.765Z,5.80
2023-02-12T23:54:42.931Z,5.78
2023-02-12T23:57:44.733Z,5.78
